createdAt,value
2018-09-29T00:00:53.332Z,15.40
2018-09-29T00:05:47.878Z,12.77
2018-09-29T00:10:42.524Z,10.33
2018-09-29T00:15:37.022Z,14.20
2018-09-29T00:20:31.574Z,10.40
2018-09-29T00:25:26.194Z,9.43
2018-09-29T00:30:20.930Z,14.43
2018-09-29T00:35:15.425Z,12.83
2018-09-29T00:40:10.652Z,10.63
2018-09-29T00:45:05.581Z,10.63
2018-09-29T00:50:00.572Z,9.27
2018-09-29T00:54:55.670Z,14.00
2018-09-29T00:59:50.362Z,18.27
2018-09-29T01:04:45.000Z,20.03
2018-09-29T01:09:39.848Z,17.97
2018-09-29T01:14:34.343Z,15.10
2018-09-29T01:19:29.140Z,16.07
2018-09-29T01:24:23.655Z,13.73
2018-09-29T01:29:18.277Z,12.87
2018-09-29T01:34:12.800Z,13.30
2018-09-29T01:39:09.571Z,12.30
2018-09-29T01:44:04.076Z,9.73
2018-09-29T01:48:58.600Z,9.83
2018-09-29T01:53:53.102Z,15.20
2018-09-29T01:58:48.361Z,10.33
2018-09-29T02:03:42.808Z,8.97
2018-09-29T02:08:37.376Z,13.60
2018-09-29T02:13:38.471Z,9.33
2018-09-29T02:18:33.030Z,10.13
2018-09-29T02:23:27.760Z,10.07
2018-09-29T02:28:22.216Z,11.17
2018-09-29T02:33:16.781Z,14.27
2018-09-29T02:38:11.257Z,12.73
2018-09-29T02:43:06.166Z,13.63
2018-09-29T02:48:00.634Z,16.07
2018-09-29T02:52:55.102Z,12.80
2018-09-29T02:57:49.696Z,11.27
2018-09-29T03:02:44.380Z,17.30
2018-09-29T03:07:38.818Z,13.57
2018-09-29T03:12:33.293Z,11.57
2018-09-29T03:17:27.751Z,16.10
2018-09-29T03:22:22.216Z,10.07
2018-09-29T03:27:16.709Z,12.43
2018-09-29T03:32:11.207Z,8.27
2018-09-29T03:37:05.798Z,15.00
2018-09-29T03:42:00.246Z,12.00
2018-09-29T03:46:54.990Z,10.50
2018-09-29T03:51:49.690Z,9.67
2018-09-29T03:56:44.145Z,10.23
2018-09-29T04:01:39.073Z,17.30
2018-09-29T04:06:33.526Z,12.13
2018-09-29T04:11:28.002Z,12.23
2018-09-29T04:16:22.488Z,11.17
2018-09-29T04:21:16.955Z,11.70
2018-09-29T04:26:11.656Z,12.53
2018-09-29T04:31:06.299Z,14.20
2018-09-29T04:36:00.773Z,13.73
2018-09-29T04:40:55.230Z,11.63
2018-09-29T04:45:49.837Z,9.50
2018-09-29T04:50:44.335Z,10.17
2018-09-29T04:55:38.922Z,9.77
2018-09-29T05:00:33.390Z,10.93
2018-09-29T05:05:27.898Z,14.70
2018-09-29T05:10:22.402Z,9.40
2018-09-29T05:15:16.889Z,10.93
2018-09-29T05:20:11.693Z,13.33
2018-09-29T05:25:07.430Z,18.47
2018-09-29T05:30:02.130Z,12.03
2018-09-29T05:34:56.924Z,10.07
2018-09-29T05:39:51.379Z,10.80
2018-09-29T05:44:46.409Z,14.47
2018-09-29T05:49:40.885Z,12.77
2018-09-29T05:54:37.749Z,9.73
2018-09-29T05:59:32.583Z,10.70
2018-09-29T06:04:30.006Z,16.73
2018-09-29T06:09:24.626Z,8.30
2018-09-29T06:14:19.357Z,11.40
2018-09-29T06:19:14.400Z,8.33
2018-09-29T06:24:09.142Z,10.67
2018-09-29T06:29:03.669Z,13.20
2018-09-29T06:33:58.312Z,7.40
2018-09-29T06:38:52.924Z,11.87
2018-09-29T06:43:47.516Z,14.53
2018-09-29T06:48:42.004Z,12.87
2018-09-29T06:53:36.628Z,9.87
2018-09-29T06:58:31.074Z,11.40
2018-09-29T07:03:25.622Z,8.73
2018-09-29T07:08:20.119Z,8.03
2018-09-29T07:13:14.772Z,7.07
2018-09-29T07:18:09.289Z,8.17
2018-09-29T07:23:03.806Z,7.50
2018-09-29T07:27:58.271Z,8.40
2018-09-29T07:32:52.778Z,5.60
2018-09-29T07:37:47.256Z,7.80
2018-09-29T07:42:41.755Z,8.43
2018-09-29T07:47:36.309Z,7.00
2018-09-29T07:52:30.962Z,9.23
2018-09-29T07:57:25.685Z,7.20
2018-09-29T08:02:20.850Z,8.27
2018-09-29T08:07:15.651Z,8.87
2018-09-29T08:12:10.456Z,7.53
2018-09-29T08:17:05.312Z,8.30
2018-09-29T08:22:00.364Z,8.40
2018-09-29T08:26:55.166Z,13.27
2018-09-29T08:31:49.924Z,9.73
2018-09-29T08:36:44.773Z,8.60
2018-09-29T08:41:39.718Z,5.03
2018-09-29T08:46:34.659Z,9.57
2018-09-29T08:51:29.583Z,6.43
2018-09-29T08:56:25.045Z,8.03
2018-09-29T09:01:19.863Z,9.80
2018-09-29T09:06:14.942Z,9.90
2018-09-29T09:11:09.703Z,11.63
2018-09-29T09:16:04.608Z,9.50
2018-09-29T09:20:59.418Z,9.27
2018-09-29T09:25:54.478Z,14.43
2018-09-29T09:30:50.715Z,6.47
2018-09-29T09:35:45.724Z,6.10
2018-09-29T09:40:40.418Z,8.40
2018-09-29T09:45:35.142Z,8.53
2018-09-29T09:50:29.840Z,6.70
2018-09-29T09:55:24.339Z,5.90
2018-09-29T10:00:18.812Z,6.93
2018-09-29T10:05:13.271Z,9.57
2018-09-29T10:10:07.793Z,7.07
2018-09-29T10:15:02.236Z,9.63
2018-09-29T10:19:56.703Z,6.30
2018-09-29T10:24:51.171Z,8.73
2018-09-29T10:29:45.742Z,6.43
2018-09-29T10:34:40.418Z,8.70
2018-09-29T10:39:34.996Z,7.60
2018-09-29T10:44:29.443Z,5.07
2018-09-29T10:49:24.039Z,8.40
2018-09-29T10:54:18.493Z,9.33
2018-09-29T10:59:13.084Z,6.53
2018-09-29T11:04:07.825Z,9.43
2018-09-29T11:09:02.348Z,4.97
2018-09-29T11:13:57.031Z,6.17
2018-09-29T11:18:51.513Z,8.20
2018-09-29T11:23:45.954Z,8.27
2018-09-29T11:28:40.444Z,6.57
2018-09-29T11:33:34.932Z,2.90
2018-09-29T11:38:29.456Z,4.87
2018-09-29T11:43:24.328Z,7.73
2018-09-29T11:48:18.973Z,7.37
2018-09-29T11:53:13.478Z,5.93
2018-09-29T11:58:08.130Z,5.00
2018-09-29T12:03:02.985Z,5.03
2018-09-29T12:07:57.645Z,8.73
2018-09-29T12:12:53.266Z,5.00
2018-09-29T12:17:47.821Z,4.33
2018-09-29T12:22:42.285Z,7.97
2018-09-29T12:27:36.912Z,5.33
2018-09-29T12:32:31.507Z,4.93
2018-09-29T12:37:26.204Z,5.73
2018-09-29T12:42:21.034Z,6.63
2018-09-29T12:47:16.729Z,5.37
2018-09-29T12:52:11.286Z,4.50
2018-09-29T12:57:05.978Z,3.90
2018-09-29T13:02:00.566Z,4.23
2018-09-29T13:06:55.116Z,2.47
2018-09-29T13:11:49.907Z,6.10
2018-09-29T13:16:44.437Z,4.13
2018-09-29T13:21:39.342Z,3.63
2018-09-29T13:26:34.145Z,5.03
2018-09-29T13:31:28.952Z,5.00
2018-09-29T13:36:23.516Z,5.87
2018-09-29T13:41:19.141Z,2.60
2018-09-29T13:46:13.673Z,4.27
2018-09-29T13:51:08.299Z,3.83
2018-09-29T13:56:03.652Z,3.13
2018-09-29T14:00:58.326Z,3.33
2018-09-29T14:05:53.115Z,3.43
2018-09-29T14:10:47.571Z,3.77
2018-09-29T14:15:42.568Z,4.00
2018-09-29T14:20:37.376Z,4.87
2018-09-29T14:25:33.035Z,5.50
2018-09-29T14:30:27.729Z,5.17
2018-09-29T14:35:22.393Z,4.37
2018-09-29T14:40:17.037Z,3.47
2018-09-29T14:45:11.626Z,3.63
2018-09-29T14:50:07.001Z,7.17
2018-09-29T14:55:01.699Z,2.63
2018-09-29T14:59:56.651Z,3.47
2018-09-29T15:04:51.202Z,4.73
2018-09-29T15:09:45.642Z,4.03
2018-09-29T15:14:40.652Z,5.07
2018-09-29T15:19:35.645Z,5.90
2018-09-29T15:24:30.812Z,4.67
2018-09-29T15:29:25.659Z,4.20
2018-09-29T15:34:20.563Z,4.13
2018-09-29T15:39:15.072Z,5.00
2018-09-29T15:44:10.346Z,2.97
2018-09-29T15:49:05.152Z,6.47
2018-09-29T15:53:59.851Z,6.47
2018-09-29T15:58:54.492Z,3.47
2018-09-29T16:03:48.961Z,2.93
2018-09-29T16:08:43.678Z,5.20
2018-09-29T16:13:38.353Z,4.43
2018-09-29T16:18:32.953Z,4.80
2018-09-29T16:23:27.639Z,4.60
2018-09-29T16:28:22.117Z,9.30
2018-09-29T16:33:17.120Z,3.30
2018-09-29T16:38:11.584Z,7.13
2018-09-29T16:43:06.264Z,3.60
2018-09-29T16:48:00.731Z,2.97
2018-09-29T16:52:55.242Z,5.07
2018-09-29T16:57:49.792Z,10.53
2018-09-29T17:02:44.269Z,5.20
2018-09-29T17:07:38.918Z,4.50
2018-09-29T17:12:33.602Z,6.93
2018-09-29T17:17:28.120Z,10.83
2018-09-29T17:22:22.604Z,5.93
2018-09-29T17:27:17.039Z,7.50
2018-09-29T17:32:11.823Z,9.23
2018-09-29T17:37:06.523Z,8.33
2018-09-29T17:42:01.136Z,5.97
2018-09-29T17:46:55.622Z,9.43
2018-09-29T17:51:50.077Z,7.07
2018-09-29T17:56:44.523Z,8.00
2018-09-29T18:01:39.001Z,6.63
2018-09-29T18:06:34.503Z,8.13
2018-09-29T18:11:29.014Z,7.03
2018-09-29T18:16:25.375Z,12.90
2018-09-29T18:21:19.957Z,10.97
2018-09-29T18:26:15.023Z,12.57
2018-09-29T18:31:09.680Z,9.83
2018-09-29T18:36:04.274Z,9.30
2018-09-29T18:40:59.509Z,7.20
2018-09-29T18:45:54.036Z,7.77
2018-09-29T18:50:49.340Z,6.57
2018-09-29T18:55:43.983Z,10.60
2018-09-29T19:00:40.307Z,9.43
2018-09-29T19:05:35.550Z,10.03
2018-09-29T19:10:30.450Z,11.10
2018-09-29T19:15:25.379Z,9.23
2018-09-29T19:20:19.956Z,8.30
2018-09-29T19:25:15.673Z,10.60
2018-09-29T19:30:10.422Z,10.70
2018-09-29T19:35:05.654Z,8.53
2018-09-29T19:40:00.676Z,11.43
2018-09-29T19:44:55.227Z,11.27
2018-09-29T19:49:49.846Z,7.40
2018-09-29T19:54:44.737Z,6.43
2018-09-29T19:59:39.211Z,14.40
2018-09-29T20:04:33.654Z,13.77
2018-09-29T20:09:28.282Z,9.40
2018-09-29T20:14:22.735Z,11.33
2018-09-29T20:19:17.251Z,8.90
2018-09-29T20:24:12.691Z,9.20
2018-09-29T20:29:07.563Z,9.10
2018-09-29T20:34:02.046Z,7.77
2018-09-29T20:38:57.051Z,8.67
2018-09-29T20:43:51.497Z,10.50
2018-09-29T20:48:45.932Z,14.50
2018-09-29T20:53:40.388Z,10.00
2018-09-29T20:58:34.868Z,7.10
2018-09-29T21:03:29.312Z,10.33
2018-09-29T21:08:23.789Z,8.40
2018-09-29T21:13:20.132Z,9.67
2018-09-29T21:18:14.856Z,11.33
2018-09-29T21:23:09.717Z,14.57
2018-09-29T21:28:04.223Z,10.73
2018-09-29T21:32:58.928Z,11.33
2018-09-29T21:37:53.398Z,13.40
2018-09-29T21:42:49.275Z,7.13
2018-09-29T21:47:43.809Z,12.37
2018-09-29T21:52:38.275Z,8.87
2018-09-29T21:57:32.912Z,11.20
2018-09-29T22:02:27.711Z,10.40
2018-09-29T22:07:23.074Z,9.03
2018-09-29T22:12:18.201Z,9.13
2018-09-29T22:17:12.850Z,9.17
2018-09-29T22:22:07.283Z,8.53
2018-09-29T22:27:01.923Z,10.30
2018-09-29T22:31:56.446Z,11.67
2018-09-29T22:36:52.309Z,9.50
2018-09-29T22:41:47.708Z,9.90
2018-09-29T22:46:42.535Z,9.07
2018-09-29T22:51:37.779Z,7.50
2018-09-29T22:56:33.114Z,9.60
2018-09-29T23:01:29.131Z,10.30
2018-09-29T23:06:23.597Z,6.93
2018-09-29T23:11:18.034Z,8.50
2018-09-29T23:16:12.454Z,9.50
2018-09-29T23:21:07.343Z,8.37
2018-09-29T23:26:01.814Z,7.10
2018-09-29T23:30:56.276Z,6.93
2018-09-29T23:35:50.720Z,11.10
2018-09-29T23:40:45.306Z,7.30
2018-09-29T23:45:39.778Z,7.17
2018-09-29T23:50:34.200Z,7.93
2018-09-29T23:55:28.648Z,7.87
